createdAt,value
2018-09-03T00:02:10.956Z,98666.02
2018-09-03T00:04:40.159Z,98672.77
2018-09-03T00:07:09.438Z,98667.06
2018-09-03T00:09:40.390Z,98673.77
2018-09-03T00:12:10.314Z,98662.45
2018-09-03T00:14:39.653Z,98664.58
2018-09-03T00:17:09.713Z,98658.91
2018-09-03T00:19:39.202Z,98657.02
2018-09-03T00:22:08.357Z,98661.03
2018-09-03T00:24:37.648Z,98654.53
2018-09-03T00:27:07.056Z,98654.53
2018-09-03T00:29:37.179Z,98656.72
2018-09-03T00:33:13.641Z,98665.66
2018-09-03T00:35:48.023Z,98662.69
2018-09-03T00:38:22.527Z,98667.81
2018-09-03T00:40:56.977Z,98657.56
2018-09-03T00:43:31.302Z,98662.18
2018-09-03T00:46:05.777Z,98654.60
2018-09-03T00:48:34.962Z,98653.79
2018-09-03T00:51:04.131Z,98653.15
2018-09-03T00:53:33.313Z,98661.54
2018-09-03T00:56:02.576Z,98668.55
2018-09-03T00:58:31.740Z,98668.28
2018-09-03T01:01:00.930Z,98666.39
2018-09-03T01:03:30.143Z,98663.16
2018-09-03T01:05:59.357Z,98661.23
2018-09-03T01:08:28.538Z,98663.95
2018-09-03T01:10:57.710Z,98653.72
2018-09-03T01:13:27.046Z,98606.56
2018-09-03T01:15:56.253Z,98659.34
2018-09-03T01:18:25.485Z,98664.20
2018-09-03T01:20:54.673Z,98669.08
2018-09-03T01:23:23.834Z,98664.50
2018-09-03T01:25:53.090Z,98662.89
2018-09-03T01:28:22.302Z,98655.84
2018-09-03T01:30:51.489Z,98653.95
2018-09-03T01:33:20.737Z,98654.77
2018-09-03T01:35:49.900Z,98645.59
2018-09-03T01:38:19.388Z,98643.40
2018-09-03T01:40:48.616Z,98643.40
2018-09-03T01:43:17.813Z,98634.80
2018-09-03T01:45:46.987Z,98637.73
2018-09-03T01:48:16.506Z,98633.69
2018-09-03T01:50:45.718Z,98627.72
2018-09-03T01:53:14.882Z,98633.38
2018-09-03T01:55:44.096Z,98628.50
2018-09-03T01:58:13.317Z,98627.69
2018-09-03T02:00:42.677Z,98619.28
2018-09-03T02:03:11.960Z,98618.44
2018-09-03T02:05:41.312Z,98616.55
2018-09-03T02:08:10.960Z,98619.52
2018-09-03T02:10:40.197Z,98622.21
2018-09-03T02:13:09.472Z,98615.47
2018-09-03T02:15:38.694Z,98617.32
2018-09-03T02:18:07.884Z,98620.52
2018-09-03T02:20:37.086Z,98623.48
2018-09-03T02:23:06.498Z,98622.41
2018-09-03T02:25:35.794Z,98619.17
2018-09-03T02:28:05.010Z,98612.42
2018-09-03T02:30:34.276Z,98610.84
2018-09-03T02:33:04.200Z,98605.69
2018-09-03T02:35:34.139Z,98588.97
2018-09-03T02:38:03.440Z,98588.97
2018-09-03T02:40:32.656Z,98584.11
2018-09-03T02:43:01.852Z,98578.98
2018-09-03T02:45:31.115Z,98576.28
2018-09-03T02:48:00.349Z,98565.23
2018-09-03T02:50:29.532Z,98568.23
2018-09-03T02:52:58.752Z,98568.78
2018-09-03T02:55:27.972Z,98566.63
2018-09-03T02:57:57.137Z,98565.81
2018-09-03T03:00:27.329Z,98557.22
2018-09-03T03:02:57.959Z,98552.64
2018-09-03T03:05:27.964Z,98547.52
2018-09-03T03:07:57.351Z,98547.52
2018-09-03T03:10:26.523Z,98547.78
2018-09-03T03:12:55.715Z,98549.13
2018-09-03T03:15:24.932Z,98552.64
2018-09-03T03:17:54.120Z,98560.73
2018-09-03T03:20:23.319Z,98554.53
2018-09-03T03:22:52.515Z,98552.91
2018-09-03T03:25:21.765Z,98559.92
2018-09-03T03:27:50.926Z,98553.18
2018-09-03T03:30:20.182Z,98546.44
2018-09-03T03:32:50.023Z,98543.47
2018-09-03T03:35:19.203Z,98555.03
2018-09-03T03:37:49.361Z,98548.55
2018-09-03T03:40:19.573Z,98545.89
2018-09-03T03:42:48.786Z,98556.14
2018-09-03T03:45:18.049Z,98561.77
2018-09-03T03:47:47.277Z,98564.47
2018-09-03T03:50:16.471Z,98563.65
2018-09-03T03:52:45.700Z,98559.34
2018-09-03T03:55:14.966Z,98561.19
2018-09-03T03:57:44.101Z,98567.92
2018-09-03T04:00:13.253Z,98559.60
2018-09-03T04:02:42.473Z,98559.30
2018-09-03T04:05:11.676Z,98563.88
2018-09-03T04:07:40.896Z,98558.25
2018-09-03T04:10:10.105Z,98550.16
2018-09-03T04:12:42.150Z,98551.52
2018-09-03T04:15:11.403Z,98546.66
2018-09-03T04:17:40.624Z,98551.52
2018-09-03T04:20:09.809Z,98552.05
2018-09-03T04:22:39.022Z,98545.31
2018-09-03T04:25:08.418Z,98556.09
2018-09-03T04:27:37.592Z,98553.95
2018-09-03T04:30:06.929Z,98566.13
2018-09-03T04:32:36.104Z,98560.99
2018-09-03T04:35:05.489Z,98566.39
2018-09-03T04:37:34.710Z,98568.27
2018-09-03T04:40:03.909Z,98569.63
2018-09-03T04:42:33.110Z,98572.32
2018-09-03T04:45:02.285Z,98581.99
2018-09-03T04:47:31.510Z,98580.65
2018-09-03T04:50:00.671Z,98583.92
2018-09-03T04:52:29.892Z,98580.65
2018-09-03T04:54:59.085Z,98575.02
2018-09-03T04:57:28.268Z,98576.60
2018-09-03T04:59:57.590Z,98572.82
2018-09-03T05:02:26.793Z,98566.34
2018-09-03T05:04:55.987Z,98564.42
2018-09-03T05:07:25.189Z,98561.45
2018-09-03T05:09:54.489Z,98560.37
2018-09-03T05:12:23.690Z,98563.47
2018-09-03T05:14:52.891Z,98555.33
2018-09-03T05:17:22.129Z,98559.84
2018-09-03T05:19:51.277Z,98553.32
2018-09-03T05:22:20.453Z,98563.56
2018-09-03T05:24:49.677Z,98561.67
2018-09-03T05:27:18.882Z,98559.74
2018-09-03T05:29:48.140Z,98556.47
2018-09-03T05:32:17.287Z,98565.59
2018-09-03T05:34:46.474Z,98563.40
2018-09-03T05:37:15.661Z,98566.59
2018-09-03T05:39:46.158Z,98569.30
2018-09-03T05:42:15.326Z,98570.63
2018-09-03T05:44:44.507Z,98567.95
2018-09-03T05:47:13.689Z,98568.80
2018-09-03T05:49:42.850Z,98562.94
2018-09-03T05:52:12.112Z,98567.27
2018-09-03T05:54:41.314Z,98565.41
2018-09-03T05:57:11.298Z,98561.10
2018-09-03T05:59:40.513Z,98561.10
2018-09-03T06:02:09.777Z,98545.19
2018-09-03T06:04:39.309Z,98540.09
2018-09-03T06:07:08.548Z,98541.69
2018-09-03T06:09:37.742Z,98540.88
2018-09-03T06:12:06.972Z,98547.30
2018-09-03T06:14:36.117Z,98546.53
2018-09-03T06:17:05.567Z,98554.63
2018-09-03T06:19:34.722Z,98557.28
2018-09-03T06:22:03.975Z,98557.01
2018-09-03T06:24:33.144Z,98549.50
2018-09-03T06:27:02.297Z,98552.43
2018-09-03T06:29:31.476Z,98547.30
2018-09-03T06:32:00.656Z,98545.69
2018-09-03T06:34:29.852Z,98552.19
2018-09-03T06:36:59.238Z,98549.50
2018-09-03T06:39:28.475Z,98540.33
2018-09-03T06:41:57.677Z,98550.30
2018-09-03T06:44:26.945Z,98548.56
2018-09-03T06:46:56.139Z,98547.56
2018-09-03T06:49:25.288Z,98544.60
2018-09-03T06:51:54.476Z,98543.25
2018-09-03T06:54:23.829Z,98551.48
2018-09-03T06:56:53.025Z,98542.41
2018-09-03T06:59:22.252Z,98543.08
2018-09-03T07:01:51.763Z,98538.04
2018-09-03T07:04:20.905Z,98540.97
2018-09-03T07:06:50.149Z,98533.31
2018-09-03T07:09:19.246Z,98531.88
2018-09-03T07:11:48.446Z,98531.69
2018-09-03T07:14:17.618Z,98530.42
2018-09-03T07:16:46.812Z,98531.94
2018-09-03T07:19:16.013Z,98540.84
2018-09-03T07:21:45.175Z,98546.67
2018-09-03T07:24:15.445Z,98544.38
2018-09-03T07:26:44.722Z,98553.51
2018-09-03T07:29:13.889Z,98548.91
2018-09-03T07:31:43.075Z,98535.89
2018-09-03T07:34:12.237Z,98535.52
2018-09-03T07:36:41.461Z,98534.91
2018-09-03T07:39:11.270Z,98539.47
2018-09-03T07:41:40.434Z,98538.50
2018-09-03T07:44:09.695Z,98530.08
2018-09-03T07:46:38.777Z,98524.58
2018-09-03T07:49:08.194Z,98516.66
2018-09-03T07:51:37.362Z,98520.70
2018-09-03T07:54:07.043Z,98520.91
2018-09-03T07:56:36.211Z,98523.03
2018-09-03T07:59:05.583Z,98514.77
2018-09-03T08:01:34.696Z,98519.85
2018-09-03T08:04:03.870Z,98515.86
2018-09-03T08:06:33.047Z,98508.77
2018-09-03T08:09:02.193Z,98508.89
2018-09-03T08:11:31.372Z,98518.75
2018-09-03T08:14:00.679Z,98515.53
2018-09-03T08:16:29.878Z,98513.48
2018-09-03T08:18:59.042Z,98510.81
2018-09-03T08:21:28.237Z,98513.19
2018-09-03T08:23:57.501Z,98516.85
2018-09-03T08:26:26.670Z,98521.72
2018-09-03T08:28:55.856Z,98528.27
2018-09-03T08:31:25.469Z,98529.30
2018-09-03T08:33:54.681Z,98532.62
2018-09-03T08:36:23.844Z,98531.04
2018-09-03T08:38:53.022Z,98522.66
2018-09-03T08:41:22.166Z,98527.13
2018-09-03T08:43:51.391Z,98526.16
2018-09-03T08:46:20.562Z,98525.10
2018-09-03T08:48:49.779Z,98527.66
2018-09-03T08:51:19.068Z,98532.38
2018-09-03T08:53:48.281Z,98537.60
2018-09-03T08:56:17.677Z,98534.84
2018-09-03T08:58:46.854Z,98537.30
2018-09-03T09:01:16.060Z,98539.87
2018-09-03T09:03:45.408Z,98550.08
2018-09-03T09:06:14.589Z,98540.80
2018-09-03T09:08:43.783Z,98548.19
2018-09-03T09:11:12.979Z,98545.73
2018-09-03T09:13:42.146Z,98542.53
2018-09-03T09:16:11.293Z,98538.63
2018-09-03T09:18:40.520Z,98537.91
2018-09-03T09:21:09.822Z,98537.84
2018-09-03T09:23:38.995Z,98540.16
2018-09-03T09:26:08.206Z,98533.76
2018-09-03T09:28:37.392Z,98530.61
2018-09-03T09:31:06.990Z,98528.94
2018-09-03T09:33:36.137Z,98527.81
2018-09-03T09:36:05.377Z,98518.31
2018-09-03T09:38:34.555Z,98518.95
2018-09-03T09:41:03.763Z,98517.30
2018-09-03T09:43:33.040Z,98523.02
2018-09-03T09:46:02.316Z,98526.24
2018-09-03T09:48:31.469Z,98527.75
2018-09-03T09:51:00.675Z,98519.53
2018-09-03T09:53:29.883Z,98509.23
2018-09-03T09:55:59.196Z,98511.39
2018-09-03T09:58:29.090Z,98507.23
2018-09-03T10:01:03.573Z,98507.87
2018-09-03T10:03:33.176Z,98512.17
2018-09-03T10:06:02.367Z,98515.77
2018-09-03T10:08:31.539Z,98436.66
2018-09-03T10:11:00.757Z,98503.80
2018-09-03T10:13:29.949Z,98508.66
2018-09-03T10:15:59.137Z,98508.23
2018-09-03T10:18:28.372Z,98503.42
2018-09-03T10:20:57.974Z,98500.69
2018-09-03T10:23:27.145Z,98504.28
2018-09-03T10:25:56.426Z,98516.93
2018-09-03T10:28:25.580Z,98509.32
2018-09-03T10:30:54.908Z,98502.70
2018-09-03T10:33:24.117Z,98500.47
2018-09-03T10:35:53.305Z,98495.59
2018-09-03T10:38:22.476Z,98490.17
2018-09-03T10:40:51.754Z,98493.61
2018-09-03T10:43:20.897Z,98498.41
2018-09-03T10:45:50.078Z,98498.41
2018-09-03T10:48:19.311Z,98498.00
2018-09-03T10:50:48.486Z,98494.52
2018-09-03T10:53:17.712Z,98493.98
2018-09-03T10:55:46.898Z,98492.01
2018-09-03T10:58:16.091Z,98485.41
2018-09-03T11:00:45.261Z,98482.20
2018-09-03T11:03:14.465Z,98476.40
2018-09-03T11:05:43.708Z,98478.73
2018-09-03T11:08:12.882Z,98481.55
2018-09-03T11:10:42.091Z,98477.06
2018-09-03T11:13:11.320Z,98472.77
2018-09-03T11:15:40.962Z,98471.49
2018-09-03T11:18:10.191Z,98468.15
2018-09-03T11:20:39.668Z,98466.07
2018-09-03T11:23:09.009Z,98468.63
2018-09-03T11:25:38.490Z,98466.36
2018-09-03T11:28:07.826Z,98462.52
2018-09-03T11:30:37.151Z,98468.09
2018-09-03T11:33:06.693Z,98465.62
2018-09-03T11:35:35.881Z,98459.03
2018-09-03T11:38:05.130Z,98461.84
2018-09-03T11:40:34.421Z,98456.74
2018-09-03T11:43:03.632Z,98456.37
2018-09-03T11:45:33.177Z,98454.76
2018-09-03T11:48:02.381Z,98448.99
2018-09-03T11:50:31.624Z,98448.67
2018-09-03T11:53:00.854Z,98441.83
2018-09-03T11:55:30.082Z,98446.80
2018-09-03T11:57:59.361Z,98441.74
2018-09-03T12:00:30.832Z,98446.37
2018-09-03T12:03:00.305Z,98444.83
2018-09-03T12:05:30.089Z,98444.50
2018-09-03T12:07:59.377Z,98457.84
2018-09-03T12:10:28.555Z,98448.52
2018-09-03T12:12:57.717Z,98450.98
2018-09-03T12:15:35.983Z,98444.20
2018-09-03T12:18:05.170Z,98440.07
2018-09-03T12:20:34.316Z,98440.41
2018-09-03T12:23:03.531Z,98445.78
2018-09-03T12:25:32.721Z,98437.33
2018-09-03T12:28:01.920Z,98434.95
2018-09-03T12:30:31.134Z,98436.02
2018-09-03T12:33:00.610Z,98430.64
2018-09-03T12:35:29.827Z,98429.52
2018-09-03T12:37:59.083Z,98435.06
2018-09-03T12:40:28.264Z,98434.52
2018-09-03T12:42:57.479Z,98436.64
2018-09-03T12:45:31.897Z,98433.31
2018-09-03T12:48:01.443Z,98428.95
2018-09-03T12:50:30.679Z,98432.33
2018-09-03T12:52:59.900Z,98434.81
2018-09-03T12:55:29.141Z,98437.32
2018-09-03T12:57:58.362Z,98433.50
2018-09-03T13:00:27.561Z,98436.06
2018-09-03T13:02:56.820Z,98428.21
2018-09-03T13:05:25.969Z,98421.92
2018-09-03T13:07:55.179Z,98414.08
2018-09-03T13:10:24.519Z,98417.10
2018-09-03T13:12:53.773Z,98407.94
2018-09-03T13:15:23.081Z,98409.78
2018-09-03T13:17:52.296Z,98404.11
2018-09-03T13:20:21.526Z,98404.26
2018-09-03T13:22:50.702Z,98412.97
2018-09-03T13:25:19.910Z,98396.86
2018-09-03T13:27:49.131Z,98401.25
2018-09-03T13:30:18.354Z,98391.98
2018-09-03T13:32:47.530Z,98388.20
2018-09-03T13:35:16.753Z,98385.16
2018-09-03T13:37:45.947Z,98385.09
2018-09-03T13:40:15.347Z,98382.23
2018-09-03T13:42:44.526Z,98383.84
2018-09-03T13:45:13.761Z,98387.06
2018-09-03T13:47:42.952Z,98393.66
2018-09-03T13:50:12.175Z,98390.64
2018-09-03T13:52:41.455Z,98378.97
2018-09-03T13:55:11.505Z,98254.99
2018-09-03T13:57:40.684Z,98378.13
2018-09-03T14:00:10.984Z,98379.42
2018-09-03T14:02:40.293Z,98374.80
2018-09-03T14:05:09.637Z,98374.86
2018-09-03T14:07:38.917Z,98380.91
2018-09-03T14:10:08.247Z,98373.86
2018-09-03T14:12:37.462Z,98373.67
2018-09-03T14:15:07.037Z,98369.59
2018-09-03T14:17:36.287Z,98368.86
2018-09-03T14:20:05.590Z,98367.77
2018-09-03T14:22:34.753Z,98372.30
2018-09-03T14:25:03.931Z,98373.05
2018-09-03T14:27:33.137Z,98368.27
2018-09-03T14:30:02.333Z,98372.13
2018-09-03T14:32:31.606Z,98364.24
2018-09-03T14:35:00.772Z,98362.20
2018-09-03T14:37:30.186Z,98362.33
2018-09-03T14:39:59.375Z,98370.27
2018-09-03T14:42:28.579Z,98367.41
2018-09-03T14:44:57.807Z,98369.66
2018-09-03T14:47:27.050Z,98368.31
2018-09-03T14:49:56.409Z,98363.10
2018-09-03T14:52:25.784Z,98363.63
2018-09-03T14:54:54.970Z,98369.70
2018-09-03T14:57:24.142Z,98372.09
2018-09-03T14:59:53.398Z,98375.10
2018-09-03T15:02:22.550Z,98380.69
2018-09-03T15:04:51.828Z,98375.98
2018-09-03T15:07:21.017Z,98384.83
2018-09-03T15:09:50.196Z,98385.79
2018-09-03T15:12:19.406Z,98383.87
2018-09-03T15:14:48.666Z,98380.81
2018-09-03T15:17:17.773Z,98376.83
2018-09-03T15:19:46.979Z,98379.77
2018-09-03T15:22:16.165Z,98381.50
2018-09-03T15:24:45.349Z,98369.77
2018-09-03T15:27:14.556Z,98373.59
2018-09-03T15:29:43.741Z,98369.98
2018-09-03T15:32:12.933Z,98374.00
2018-09-03T15:34:42.138Z,98369.98
2018-09-03T15:37:11.430Z,98377.59
2018-09-03T15:39:40.635Z,98373.93
2018-09-03T15:42:09.841Z,98383.95
2018-09-03T15:44:39.037Z,98383.22
2018-09-03T15:47:08.392Z,98385.02
2018-09-03T15:49:37.538Z,98392.98
2018-09-03T15:52:06.750Z,98388.25
2018-09-03T15:54:35.905Z,98386.79
2018-09-03T15:57:05.179Z,98388.75
2018-09-03T15:59:34.364Z,98383.41
2018-09-03T16:02:04.185Z,98383.48
2018-09-03T16:04:33.333Z,98380.41
2018-09-03T16:07:02.500Z,98377.48
2018-09-03T16:09:31.640Z,98375.39
2018-09-03T16:12:00.810Z,98377.97
2018-09-03T16:14:30.012Z,98376.50
2018-09-03T16:16:59.394Z,98386.06
2018-09-03T16:19:28.573Z,98384.45
2018-09-03T16:21:57.812Z,98386.19
2018-09-03T16:24:26.986Z,98386.93
2018-09-03T16:26:56.166Z,98386.80
2018-09-03T16:29:25.337Z,98385.45
2018-09-03T16:31:54.619Z,98385.94
2018-09-03T16:34:23.814Z,98381.33
2018-09-03T16:36:54.352Z,98379.43
2018-09-03T16:39:23.512Z,98378.92
2018-09-03T16:41:52.674Z,98379.72
2018-09-03T16:44:21.865Z,98377.08
2018-09-03T16:46:51.042Z,98378.20
2018-09-03T16:49:20.230Z,98376.05
2018-09-03T16:51:49.434Z,98382.81
2018-09-03T16:54:18.647Z,98378.82
2018-09-03T16:56:47.832Z,98381.27
2018-09-03T16:59:16.992Z,98383.23
2018-09-03T17:01:46.170Z,98381.88
2018-09-03T17:04:15.444Z,98393.85
2018-09-03T17:06:44.681Z,98387.41
2018-09-03T17:09:13.846Z,98386.93
2018-09-03T17:11:43.041Z,98385.32
2018-09-03T17:14:12.227Z,98376.12
2018-09-03T17:16:41.391Z,98380.91
2018-09-03T17:19:11.475Z,98378.24
2018-09-03T17:21:40.661Z,98379.56
2018-09-03T17:24:11.765Z,98386.55
2018-09-03T17:26:40.917Z,98390.60
2018-09-03T17:29:10.100Z,98391.73
2018-09-03T17:31:39.307Z,98396.81
2018-09-03T17:34:08.487Z,98386.25
2018-09-03T17:36:37.705Z,98386.79
2018-09-03T17:39:08.025Z,98391.57
2018-09-03T17:41:37.183Z,98389.94
2018-09-03T17:44:06.460Z,98391.88
2018-09-03T17:46:35.647Z,98401.41
2018-09-03T17:49:04.851Z,98404.18
2018-09-03T17:51:34.020Z,98411.59
2018-09-03T17:54:03.218Z,98404.73
2018-09-03T17:56:32.381Z,98407.02
2018-09-03T17:59:01.661Z,98406.38
2018-09-03T18:01:30.965Z,98401.39
2018-09-03T18:04:00.299Z,98400.09
2018-09-03T18:06:29.482Z,98397.13
2018-09-03T18:08:58.669Z,98407.98
2018-09-03T18:11:28.313Z,98406.36
2018-09-03T18:13:57.525Z,98407.01
2018-09-03T18:16:26.843Z,98410.02
2018-09-03T18:18:57.002Z,98414.34
2018-09-03T18:21:26.214Z,98414.34
2018-09-03T18:23:55.355Z,98415.96
2018-09-03T18:26:25.663Z,98417.05
2018-09-03T18:28:54.874Z,98425.68
2018-09-03T18:31:24.874Z,98425.99
2018-09-03T18:33:54.055Z,98426.80
2018-09-03T18:36:23.226Z,98425.19
2018-09-03T18:38:53.761Z,98430.63
2018-09-03T18:41:22.923Z,98431.22
2018-09-03T18:43:52.159Z,98437.11
2018-09-03T18:46:21.313Z,98444.70
2018-09-03T18:48:50.482Z,98436.88
2018-09-03T18:51:19.729Z,98435.05
2018-09-03T18:53:49.026Z,98446.48
2018-09-03T18:56:18.195Z,98441.08
2018-09-03T18:58:47.397Z,98450.83
2018-09-03T19:01:16.537Z,98452.77
2018-09-03T19:03:45.695Z,98446.56
2018-09-03T19:06:14.968Z,98441.44
2018-09-03T19:08:44.041Z,98440.36
2018-09-03T19:11:14.683Z,98435.23
2018-09-03T19:13:43.854Z,98439.33
2018-09-03T19:16:13.017Z,98433.67
2018-09-03T19:18:42.400Z,98430.20
2018-09-03T19:21:11.560Z,98428.33
2018-09-03T19:23:42.412Z,98425.67
2018-09-03T19:26:11.619Z,98424.88
2018-09-03T19:28:40.794Z,98420.05
2018-09-03T19:31:09.998Z,98423.56
2018-09-03T19:33:39.218Z,98420.64
2018-09-03T19:36:08.417Z,98427.16
2018-09-03T19:38:37.575Z,98420.70
2018-09-03T19:41:07.017Z,98423.66
2018-09-03T19:43:36.266Z,98420.70
2018-09-03T19:46:05.432Z,98423.39
2018-09-03T19:48:34.579Z,98424.74
2018-09-03T19:51:03.749Z,98418.00
2018-09-03T19:53:32.944Z,98416.42
2018-09-03T19:56:02.049Z,98414.80
2018-09-03T19:58:31.294Z,98412.11
2018-09-03T20:01:00.480Z,98410.27
2018-09-03T20:03:29.654Z,98402.18
2018-09-03T20:05:58.890Z,98397.05
2018-09-03T20:08:28.109Z,98402.72
2018-09-03T20:10:57.225Z,98394.65
2018-09-03T20:13:26.720Z,98400.47
2018-09-03T20:15:55.912Z,98404.51
2018-09-03T20:18:25.103Z,98402.80
2018-09-03T20:20:54.281Z,98407.87
2018-09-03T20:23:23.958Z,98406.21
2018-09-03T20:25:53.217Z,98411.60
2018-09-03T20:28:22.443Z,98406.47
2018-09-03T20:30:51.574Z,98413.97
2018-09-03T20:33:20.762Z,98411.28
2018-09-03T20:35:49.956Z,98411.82
2018-09-03T20:38:19.145Z,98403.19
2018-09-03T20:40:48.319Z,98414.20
2018-09-03T20:43:17.502Z,98415.33
2018-09-03T20:45:46.656Z,98417.43
2018-09-03T20:48:15.856Z,98414.97
2018-09-03T20:50:45.056Z,98422.96
2018-09-03T20:53:14.252Z,98420.22
2018-09-03T20:55:43.619Z,98415.63
2018-09-03T20:58:12.809Z,98421.28
2018-09-03T21:00:42.030Z,98421.50
2018-09-03T21:03:11.203Z,98424.43
2018-09-03T21:05:40.368Z,98424.15
2018-09-03T21:08:09.560Z,98418.21
2018-09-03T21:10:38.702Z,98421.64
2018-09-03T21:13:08.046Z,98415.70
2018-09-03T21:15:37.401Z,98407.37
2018-09-03T21:18:06.539Z,98412.19
2018-09-03T21:20:35.718Z,98408.95
2018-09-03T21:23:04.905Z,98400.86
2018-09-03T21:25:34.046Z,98404.58
2018-09-03T21:28:03.274Z,98399.41
2018-09-03T21:30:32.420Z,98398.42
2018-09-03T21:33:01.586Z,98403.61
2018-09-03T21:35:30.791Z,98403.87
2018-09-03T21:38:00.063Z,98401.41
2018-09-03T21:40:29.223Z,98403.16
2018-09-03T21:42:58.411Z,98408.06
2018-09-03T21:45:27.569Z,98406.23
2018-09-03T21:47:56.746Z,98400.30
2018-09-03T21:50:25.896Z,98406.55
2018-09-03T21:52:55.091Z,98410.64
2018-09-03T21:55:24.233Z,98405.84
2018-09-03T21:57:53.466Z,98412.05
2018-09-03T22:00:22.687Z,98414.80
2018-09-03T22:02:51.909Z,98414.56
2018-09-03T22:05:21.118Z,98417.49
2018-09-03T22:07:50.255Z,98418.61
2018-09-03T22:10:19.481Z,98411.60
2018-09-03T22:12:48.671Z,98410.80
2018-09-03T22:15:17.837Z,98414.34
2018-09-03T22:17:46.977Z,98409.98
2018-09-03T22:20:16.179Z,98413.22
2018-09-03T22:22:46.187Z,98418.34
2018-09-03T22:25:15.381Z,98409.41
2018-09-03T22:27:44.622Z,98405.36
2018-09-03T22:30:13.860Z,98402.16
2018-09-03T22:32:44.677Z,98395.69
2018-09-03T22:35:14.035Z,98391.55
2018-09-03T22:37:43.750Z,98388.41
2018-09-03T22:40:12.904Z,98386.16
2018-09-03T22:42:42.165Z,98389.12
2018-09-03T22:45:11.541Z,98365.27
2018-09-03T22:47:40.753Z,98383.91
2018-09-03T22:50:09.972Z,98381.52
2018-09-03T22:52:39.181Z,98368.13
2018-09-03T22:55:08.569Z,98379.60
2018-09-03T22:57:37.765Z,98378.91
2018-09-03T23:00:07.050Z,98380.61
2018-09-03T23:02:41.570Z,98381.16
2018-09-03T23:05:12.320Z,98375.02
2018-09-03T23:07:41.466Z,98373.77
2018-09-03T23:10:10.946Z,98378.44
2018-09-03T23:12:40.152Z,98385.45
2018-09-03T23:15:09.915Z,98383.06
2018-09-03T23:17:39.125Z,98392.19
2018-09-03T23:20:08.355Z,98391.06
2018-09-03T23:22:37.498Z,98390.78
2018-09-03T23:25:06.959Z,98396.67
2018-09-03T23:27:36.097Z,98396.41
2018-09-03T23:30:05.449Z,98398.28
2018-09-03T23:32:34.710Z,98397.93
2018-09-03T23:35:04.050Z,98401.97
2018-09-03T23:37:33.356Z,98402.52
2018-09-03T23:40:02.961Z,98398.42
2018-09-03T23:42:32.177Z,98401.97
2018-09-03T23:45:01.408Z,98401.21
2018-09-03T23:47:30.688Z,98410.95
2018-09-03T23:49:59.965Z,98407.95
2018-09-03T23:52:29.117Z,98402.33
2018-09-03T23:54:58.341Z,98405.26
2018-09-03T23:57:27.561Z,98397.17
2018-09-03T23:59:56.777Z,98397.17
